Weather at Kuala Medamit Airport

Public forecast

Using degrees Celsius for public forecast. Weather courtesy of forecast.io.

Closest aviation weather report (METAR) to Kuala Medamit Airport

Closest report is Brunei International Airport, 28.7 nm (53.2 km) N. Retrieved 2021/12/04 19:30 UTC (11 minutes ago):

WBSB 041930Z 14002KT 9999 FEW004 SCT014 BKN140 24/24 Q1009 RESHRA NOSIG

Closest aviation forecast (TAF) to Kuala Medamit Airport

Closest forecast is Brunei International Airport, 28.7 nm (53.2 km) N. Retrieved 2021/12/04 18:10 UTC (2 hours ago):

TAF WBSB 041700Z 0418/0600 13003KT 9999 FEW014 BKN140 TEMPO 0419/0422 8000 -SHRA BECMG 0504/0506 30010KT SCT015 FEW016CB TEMPO 0506/0510 3000 +TSRA